Time;durP1;ratioP1;P1;durP2;ratioP2;P2;SDS_P1;SDS_P2;PMS_P1;PMS_P2;Temp;Humidity;BMP_temperature;BMP_pressure;BME280_temperature;BME280_humidity;BME280_pressure;Samples;Min_cycle;Max_cycle;Signal;HPM_P1;HPM_P2
2022/12/08 00:00:45;;;;;;;3.60;2.00;;;;;;;1.91;100.00;98936.38;5094095;28;20024;-83
2022/12/08 00:03:11;;;;;;;5.00;1.90;;;;;;;1.75;100.00;98932.59;5074167;28;20051;-81
2022/12/08 00:11:05;;;;;;;2.15;1.55;;;;;;;1.99;100.00;98929.56;5094074;28;20100;-83
2022/12/08 00:13:30;;;;;;;4.13;2.00;;;;;;;2.11;100.00;98926.78;5074671;28;20450;-82
2022/12/08 00:16:00;;;;;;;5.00;1.83;;;;;;;2.11;100.00;98922.41;5093290;28;20024;-82
2022/12/08 00:18:25;;;;;;;9.55;1.65;;;;;;;2.07;100.00;98930.63;5093699;28;20059;-84
2022/12/08 00:20:58;;;;;;;4.22;1.52;;;;;;;2.30;100.00;98910.34;5075577;28;20063;-84
2022/12/08 00:23:25;;;;;;;3.88;1.73;;;;;;;2.31;100.00;98911.97;5075257;28;20531;-84
2022/12/08 00:25:50;;;;;;;3.78;1.33;;;;;;;2.29;100.00;98898.34;5094400;28;20032;-86
2022/12/08 00:28:16;;;;;;;1.80;1.50;;;;;;;2.39;100.00;98895.72;5058251;28;20036;-84
2022/12/08 00:30:42;;;;;;;2.17;1.48;;;;;;;2.50;100.00;98897.28;5075539;28;20031;-85
2022/12/08 00:33:09;;;;;;;2.70;1.83;;;;;;;2.53;100.00;98907.34;5075226;28;20069;-85
2022/12/08 00:35:34;;;;;;;6.20;2.05;;;;;;;2.57;100.00;98896.56;5092987;28;20474;-84
2022/12/08 00:38:00;;;;;;;3.03;1.73;;;;;;;2.47;100.00;98894.97;5094127;28;20036;-83
2022/12/08 00:40:26;;;;;;;3.33;2.75;;;;;;;2.59;100.00;98896.41;5074768;28;20432;-83
2022/12/08 00:42:52;;;;;;;1.75;1.60;;;;;;;2.44;100.00;98896.06;5056394;28;20047;-83
2022/12/08 00:45:18;;;;;;;3.97;1.50;;;;;;;2.45;100.00;98899.50;5059209;28;20031;-84
2022/12/08 00:47:43;;;;;;;2.08;1.38;;;;;;;2.52;100.00;98879.81;5075061;28;20043;-84
2022/12/08 00:50:09;;;;;;;2.60;1.48;;;;;;;2.56;100.00;98883.75;5093292;28;20111;-85
2022/12/08 00:52:35;;;;;;;4.22;1.45;;;;;;;2.62;100.00;98885.75;5093288;28;20023;-84
2022/12/08 00:55:01;;;;;;;6.68;1.58;;;;;;;2.69;100.00;98889.38;5074761;28;20040;-83
2022/12/08 00:57:26;;;;;;;2.45;1.60;;;;;;;2.63;100.00;98892.56;5074292;28;20042;-84
2022/12/08 00:59:52;;;;;;;2.00;1.58;;;;;;;2.70;100.00;98874.66;5092968;28;20115;-85
2022/12/08 01:02:18;;;;;;;5.82;1.98;;;;;;;2.68;100.00;98864.44;5093121;28;20058;-85
2022/12/08 01:04:44;;;;;;;3.90;1.77;;;;;;;2.63;100.00;98879.59;5093123;28;20097;-85
2022/12/08 01:07:10;;;;;;;1.80;1.30;;;;;;;2.68;100.00;98861.84;5075918;28;20123;-84
2022/12/08 01:09:35;;;;;;;3.72;1.60;;;;;;;2.58;100.00;98850.75;5075735;28;20068;-84
2022/12/08 01:12:01;;;;;;;3.30;1.60;;;;;;;2.59;100.00;98849.78;5092118;28;20024;-86
2022/12/08 01:14:27;;;;;;;3.55;1.63;;;;;;;2.69;100.00;98850.50;5074901;28;20027;-86
2022/12/08 01:16:52;;;;;;;3.30;1.38;;;;;;;2.67;100.00;98851.63;5075136;28;20020;-86
2022/12/08 01:19:21;;;;;;;3.03;1.80;;;;;;;2.46;100.00;98841.53;5075618;28;20062;-85
2022/12/08 01:21:46;;;;;;;3.10;1.42;;;;;;;2.71;100.00;98845.19;5093158;28;20428;-85
2022/12/08 01:24:19;;;;;;;5.38;1.52;;;;;;;2.74;100.00;98844.06;5092972;28;20028;-86
2022/12/08 01:26:45;;;;;;;1.50;1.40;;;;;;;2.59;100.00;98839.41;5074738;28;20038;-85
2022/12/08 01:29:11;;;;;;;4.18;1.55;;;;;;;2.65;100.00;98844.00;5074318;28;20276;-85
2022/12/08 01:31:37;;;;;;;2.00;1.60;;;;;;;2.54;100.00;98849.38;5092569;28;20032;-84
2022/12/08 01:34:04;;;;;;;2.67;1.58;;;;;;;2.58;100.00;98855.91;5073894;28;20032;-83
2022/12/08 01:36:31;;;;;;;5.15;1.83;;;;;;;2.63;100.00;98838.16;5092014;28;20137;-84
2022/12/08 01:39:00;;;;;;;8.15;1.83;;;;;;;2.55;100.00;98854.44;5091714;28;20039;-82
2022/12/08 01:41:31;;;;;;;1.50;1.35;;;;;;;2.67;100.00;98831.69;5054754;28;20066;-82
2022/12/08 01:44:01;;;;;;;4.07;1.40;;;;;;;2.68;100.00;98851.47;5072888;28;20044;-84
2022/12/08 01:46:30;;;;;;;3.45;1.60;;;;;;;2.62;100.00;98844.28;5090926;28;20111;-84
2022/12/08 01:49:09;;;;;;;2.85;1.48;;;;;;;2.66;100.00;98835.25;5091917;28;20501;-86
2022/12/08 01:51:44;;;;;;;1.52;1.40;;;;;;;2.85;100.00;98841.25;5091040;28;20035;-84
2022/12/08 01:54:11;;;;;;;4.00;1.50;;;;;;;2.47;100.00;98840.56;5073849;28;20027;-84
2022/12/08 01:57:02;;;;;;;3.65;1.30;;;;;;;2.94;100.00;98850.72;5073415;28;20055;-83
2022/12/08 01:59:29;;;;;;;3.05;1.60;;;;;;;2.60;100.00;98822.91;5056335;28;20038;-83
2022/12/08 02:01:55;;;;;;;2.17;1.50;;;;;;;2.65;100.00;98844.00;5073692;28;20043;-83
2022/12/08 02:04:21;;;;;;;2.58;1.55;;;;;;;2.63;100.00;98840.75;5090183;28;20029;-83
2022/12/08 02:06:49;;;;;;;4.57;1.50;;;;;;;2.65;100.00;98836.22;5090873;28;20042;-84
2022/12/08 02:09:15;;;;;;;3.67;1.40;;;;;;;2.54;100.00;98849.38;5073431;28;20118;-85
2022/12/08 02:11:41;;;;;;;1.42;1.33;;;;;;;2.39;100.00;98831.78;5090788;28;20116;-84
2022/12/08 02:14:10;;;;;;;2.78;1.55;;;;;;;2.60;100.00;98845.38;5074684;28;20036;-84
2022/12/08 02:16:42;;;;;;;1.85;1.50;;;;;;;2.62;100.00;98836.53;5073228;28;20036;-83
2022/12/08 02:19:33;;;;;;;2.80;1.75;;;;;;;2.72;100.00;98841.63;5072686;28;20030;-84
2022/12/08 02:22:11;;;;;;;1.67;1.33;;;;;;;2.55;100.00;98830.28;5090049;28;20063;-84
2022/12/08 02:24:57;;;;;;;5.10;1.50;;;;;;;2.68;100.00;98828.13;5091535;28;20032;-87
2022/12/08 02:27:32;;;;;;;3.28;1.58;;;;;;;2.66;100.00;98827.47;5090383;28;20043;-84
2022/12/08 02:30:06;;;;;;;5.53;1.92;;;;;;;2.64;100.00;98825.97;5072728;28;20043;-84
2022/12/08 02:33:09;;;;;;;2.10;1.73;;;;;;;2.43;100.00;98824.50;5056443;28;20077;-84
2022/12/08 02:35:43;;;;;;;3.90;2.70;;;;;;;2.63;100.00;98827.78;5076240;28;20035;-83
2022/12/08 02:38:36;;;;;;;2.88;1.52;;;;;;;2.52;100.00;98835.75;5072435;28;20813;-85
2022/12/08 02:41:07;;;;;;;2.20;1.60;;;;;;;2.71;100.00;98811.50;5071094;28;20101;-87
2022/12/08 02:44:02;;;;;;;3.63;1.80;;;;;;;2.65;100.00;98830.22;5082008;28;20058;-87
2022/12/08 02:46:37;;;;;;;2.58;1.58;;;;;;;2.69;100.00;98811.63;5062134;28;20071;-86
2022/12/08 02:49:04;;;;;;;4.63;1.52;;;;;;;2.56;100.00;98816.38;5061003;28;20031;-85
2022/12/08 02:51:29;;;;;;;1.60;1.50;;;;;;;2.55;100.00;98812.13;5060705;28;20385;-86
2022/12/08 02:53:55;;;;;;;3.75;1.70;;;;;;;2.67;100.00;98803.19;5085069;28;20028;-85
2022/12/08 02:56:43;;;;;;;3.72;1.50;;;;;;;2.64;100.00;98813.84;5060730;28;20476;-85
2022/12/08 02:59:30;;;;;;;1.40;1.30;;;;;;;2.63;100.00;98801.88;5079832;28;20032;-85
2022/12/08 03:02:01;;;;;;;3.25;1.45;;;;;;;2.71;100.00;98796.75;5060811;28;20360;-86
2022/12/08 03:04:51;;;;;;;4.78;1.73;;;;;;;2.72;100.00;98800.97;5078585;28;20429;-87
2022/12/08 03:07:26;;;;;;;2.80;1.45;;;;;;;2.76;100.00;98798.09;5074930;28;20043;-86
2022/12/08 03:10:24;;;;;;;2.38;1.50;;;;;;;2.94;100.00;98791.06;5077998;28;20029;-85
2022/12/08 03:13:02;;;;;;;1.88;1.45;;;;;;;2.78;100.00;98796.97;5058668;28;20498;-84
2022/12/08 03:15:31;;;;;;;3.58;1.60;;;;;;;2.78;100.00;98799.56;5079104;28;20119;-84
2022/12/08 03:17:58;;;;;;;3.63;1.60;;;;;;;2.76;100.00;98785.13;5060275;28;20024;-86
2022/12/08 03:20:26;;;;;;;2.20;1.60;;;;;;;2.64;100.00;98793.13;5062846;28;20024;-86
2022/12/08 03:22:57;;;;;;;2.65;1.60;;;;;;;2.60;100.00;98796.16;5081461;28;20241;-85
2022/12/08 03:25:26;;;;;;;3.67;1.75;;;;;;;2.48;100.00;98792.97;5067870;28;20477;-85
2022/12/08 03:27:52;;;;;;;2.47;1.27;;;;;;;2.51;100.00;98795.28;5062853;28;20020;-85
2022/12/08 03:30:18;;;;;;;4.70;1.50;;;;;;;2.57;100.00;98792.09;5068285;28;20474;-83
2022/12/08 03:32:53;;;;;;;1.45;1.10;;;;;;;2.46;100.00;98794.91;5082830;28;20032;-85
2022/12/08 03:35:24;;;;;;;4.20;1.67;;;;;;;2.45;100.00;98788.09;5088469;28;20021;-84
2022/12/08 03:37:49;;;;;;;1.73;1.40;;;;;;;2.49;100.00;98789.41;5084152;28;20101;-82
2022/12/08 03:40:17;;;;;;;4.40;1.30;;;;;;;2.47;100.00;98773.22;5062804;28;20494;-84
2022/12/08 03:42:43;;;;;;;2.28;1.60;;;;;;;2.42;100.00;98774.47;5054560;28;20040;-83
2022/12/08 03:45:09;;;;;;;5.22;1.48;;;;;;;2.40;100.00;98781.59;5075531;28;20032;-83
2022/12/08 03:47:35;;;;;;;2.00;1.40;;;;;;;2.25;100.00;98777.88;5075652;28;20085;-84
2022/12/08 03:50:01;;;;;;;5.47;1.40;;;;;;;2.36;100.00;98769.06;5094313;28;20078;-84
2022/12/08 03:52:27;;;;;;;2.30;1.50;;;;;;;2.27;100.00;98775.94;5094405;28;20024;-83
2022/12/08 03:54:53;;;;;;;6.22;1.67;;;;;;;2.28;100.00;98762.88;5093085;28;20107;-84
2022/12/08 03:57:20;;;;;;;2.90;1.50;;;;;;;2.20;100.00;98769.75;5093817;28;20489;-83
2022/12/08 03:59:46;;;;;;;1.33;1.23;;;;;;;2.07;100.00;98755.38;5075579;28;20032;-83
2022/12/08 04:02:11;;;;;;;2.15;1.52;;;;;;;2.30;100.00;98741.19;5093861;28;20115;-83
2022/12/08 04:04:37;;;;;;;1.42;1.33;;;;;;;2.31;100.00;98756.56;5093306;28;20028;-84
2022/12/08 04:07:02;;;;;;;2.03;1.40;;;;;;;2.25;100.00;98757.16;5092944;28;20081;-83
2022/12/08 04:09:28;;;;;;;3.10;1.75;;;;;;;2.23;100.00;98753.91;5093399;28;20028;-84
2022/12/08 04:11:53;;;;;;;3.95;2.00;;;;;;;2.42;100.00;98753.75;5074181;28;20051;-84
2022/12/08 04:14:20;;;;;;;4.53;2.28;;;;;;;2.08;100.00;98757.00;5074921;28;20024;-83
2022/12/08 04:16:45;;;;;;;4.25;1.75;;;;;;;2.33;100.00;98749.44;5058805;28;20085;-85
2022/12/08 04:19:11;;;;;;;2.25;1.45;;;;;;;2.46;100.00;98745.69;5093248;28;20052;-85
2022/12/08 04:21:37;;;;;;;4.20;1.85;;;;;;;2.44;100.00;98740.63;5075494;28;20107;-85
2022/12/08 04:24:03;;;;;;;1.70;1.60;;;;;;;2.42;100.00;98740.81;5092507;28;20115;-84
2022/12/08 04:26:28;;;;;;;2.25;1.40;;;;;;;2.34;100.00;98735.53;5093541;28;20080;-84
2022/12/08 04:28:54;;;;;;;2.35;1.55;;;;;;;2.43;100.00;98745.03;5093418;28;20444;-84
2022/12/08 04:31:20;;;;;;;4.95;1.58;;;;;;;2.41;100.00;98740.94;5091757;28;20043;-85
2022/12/08 04:33:45;;;;;;;4.05;1.50;;;;;;;2.45;100.00;98741.47;5093513;28;21693;-84
2022/12/08 04:36:11;;;;;;;6.20;1.65;;;;;;;2.44;100.00;98730.28;5092952;28;20027;-85
2022/12/08 04:38:36;;;;;;;5.57;1.80;;;;;;;2.42;100.00;98727.03;5074425;28;20079;-84
2022/12/08 04:41:02;;;;;;;3.08;1.40;;;;;;;2.61;100.00;98725.22;5074931;28;20044;-83
2022/12/08 04:43:28;;;;;;;2.13;1.48;;;;;;;2.35;100.00;98728.59;5092823;28;20039;-83
2022/12/08 04:45:53;;;;;;;2.60;1.55;;;;;;;2.42;100.00;98729.63;5093253;28;20080;-84
2022/12/08 04:48:19;;;;;;;5.45;1.80;;;;;;;2.17;100.00;98729.41;5075607;28;20138;-83
2022/12/08 04:50:45;;;;;;;2.22;1.80;;;;;;;2.33;100.00;98733.91;5093303;28;20032;-86
2022/12/08 04:53:12;;;;;;;3.35;1.52;;;;;;;2.58;100.00;98721.19;5093141;28;20024;-85
2022/12/08 04:55:40;;;;;;;7.65;1.90;;;;;;;2.51;100.00;98726.16;5069556;28;20025;-83
2022/12/08 04:58:05;;;;;;;3.42;1.77;;;;;;;2.49;100.00;98727.25;5079172;28;20035;-84
2022/12/08 05:00:31;;;;;;;4.32;1.60;;;;;;;2.60;100.00;98711.47;5063054;28;20049;-83
2022/12/08 05:02:56;;;;;;;2.15;1.58;;;;;;;2.49;100.00;98711.69;5087522;28;20489;-84
2022/12/08 05:05:22;;;;;;;5.07;1.95;;;;;;;2.61;100.00;98705.31;5074399;28;20024;-83
2022/12/08 05:07:48;;;;;;;1.92;1.67;;;;;;;2.67;100.00;98706.50;5089669;28;20114;-84
2022/12/08 05:10:14;;;;;;;8.25;1.77;;;;;;;2.40;100.00;98706.47;5084704;28;20035;-84
2022/12/08 05:12:40;;;;;;;3.47;1.67;;;;;;;2.67;100.00;98707.31;5073814;28;20544;-86
2022/12/08 05:15:06;;;;;;;4.40;1.80;;;;;;;2.47;100.00;98692.91;5066727;28;20056;-84
2022/12/08 05:17:32;;;;;;;4.10;1.95;;;;;;;2.51;100.00;98702.00;5068736;28;20060;-84
2022/12/08 05:19:58;;;;;;;4.32;1.73;;;;;;;2.57;100.00;98704.00;5084782;28;20029;-84
2022/12/08 05:22:24;;;;;;;3.70;1.73;;;;;;;2.41;100.00;98700.31;5057694;28;20036;-84
2022/12/08 05:24:50;;;;;;;3.28;1.60;;;;;;;2.55;100.00;98695.53;5090224;28;20520;-85
2022/12/08 05:27:15;;;;;;;6.93;1.70;;;;;;;2.42;100.00;98699.34;5074909;28;20036;-86
2022/12/08 05:29:41;;;;;;;3.15;1.90;;;;;;;2.45;100.00;98689.66;5082946;28;20034;-86
2022/12/08 05:32:08;;;;;;;2.30;1.50;;;;;;;2.47;100.00;98696.31;5087728;28;20474;-85
2022/12/08 05:34:33;;;;;;;6.00;1.90;;;;;;;2.44;100.00;98691.41;5086413;28;20069;-84
2022/12/08 05:36:59;;;;;;;4.10;1.98;;;;;;;2.38;100.00;98692.84;5067002;28;20118;-85
2022/12/08 05:39:25;;;;;;;6.85;1.63;;;;;;;2.28;100.00;98687.75;5093096;28;20103;-84
2022/12/08 05:41:50;;;;;;;8.40;2.25;;;;;;;2.30;100.00;98704.94;5072760;28;20024;-85
2022/12/08 05:44:16;;;;;;;5.53;1.80;;;;;;;2.42;100.00;98696.78;5091074;28;20425;-86
2022/12/08 05:46:42;;;;;;;3.25;1.50;;;;;;;2.52;100.00;98695.84;5092305;28;20085;-85
2022/12/08 05:49:07;;;;;;;4.18;2.00;;;;;;;2.53;100.00;98702.66;5092344;28;20051;-85
2022/12/08 05:51:33;;;;;;;5.03;1.70;;;;;;;2.58;100.00;98690.09;5057897;28;20035;-86
2022/12/08 05:53:59;;;;;;;7.88;2.13;;;;;;;2.46;100.00;98694.69;5073901;28;20086;-84
2022/12/08 05:56:24;;;;;;;4.65;1.88;;;;;;;2.50;100.00;98698.59;5073496;28;20485;-84
2022/12/08 05:58:50;;;;;;;4.85;1.83;;;;;;;2.52;100.00;98696.69;5056757;28;20110;-84
2022/12/08 06:01:24;;;;;;;2.47;1.70;;;;;;;2.40;100.00;98698.69;5086399;28;20076;-85
2022/12/08 06:03:50;;;;;;;3.20;1.95;;;;;;;2.33;100.00;98692.47;5070342;28;20032;-85
2022/12/08 06:06:16;;;;;;;4.57;1.75;;;;;;;2.56;100.00;98689.44;5073706;28;20028;-86
2022/12/08 06:08:42;;;;;;;7.22;2.00;;;;;;;2.73;100.00;98695.53;5074084;28;20503;-85
2022/12/08 06:11:08;;;;;;;6.63;1.95;;;;;;;2.67;100.00;98683.97;5069021;28;20035;-85
2022/12/08 06:13:34;;;;;;;4.65;1.70;;;;;;;2.45;100.00;98679.28;5091974;28;20020;-85
2022/12/08 06:16:06;;;;;;;2.80;1.80;;;;;;;2.62;100.00;98686.22;5091732;28;20363;-86
2022/12/08 06:18:32;;;;;;;7.25;1.85;;;;;;;2.50;100.00;98687.41;5090770;28;20024;-86
2022/12/08 06:21:09;;;;;;;4.68;1.70;;;;;;;2.39;100.00;98688.47;5067739;28;20111;-86
2022/12/08 06:23:36;;;;;;;3.30;2.20;;;;;;;2.45;100.00;98685.28;5062350;28;20525;-85
2022/12/08 06:26:05;;;;;;;3.40;1.95;;;;;;;2.48;100.00;98678.97;5071721;28;20071;-87
2022/12/08 06:28:31;;;;;;;4.10;1.70;;;;;;;2.45;100.00;98687.06;5063801;28;20402;-85
2022/12/08 06:30:58;;;;;;;2.38;1.90;;;;;;;2.31;100.00;98685.84;5071706;28;20032;-87
2022/12/08 06:33:24;;;;;;;5.55;2.03;;;;;;;2.43;100.00;98685.44;5073431;28;20062;-86
2022/12/08 06:35:51;;;;;;;3.42;1.55;;;;;;;2.43;100.00;98679.44;5074616;28;20173;-85
2022/12/08 06:38:17;;;;;;;3.63;1.80;;;;;;;2.23;100.00;98681.41;5083887;28;20047;-84
2022/12/08 06:40:43;;;;;;;3.08;1.80;;;;;;;2.08;100.00;98681.91;5062870;28;20035;-84
2022/12/08 06:43:08;;;;;;;3.53;2.10;;;;;;;2.20;100.00;98668.75;5079373;28;20396;-84
2022/12/08 06:45:34;;;;;;;4.03;1.85;;;;;;;2.10;100.00;98668.84;5069894;28;20024;-85
2022/12/08 06:48:01;;;;;;;4.32;2.85;;;;;;;2.20;100.00;98681.69;5071769;28;20042;-85
2022/12/08 06:50:27;;;;;;;4.03;1.92;;;;;;;2.11;100.00;98673.03;5072778;28;20132;-83
2022/12/08 06:52:53;;;;;;;2.72;1.95;;;;;;;2.22;100.00;98665.03;5090474;28;20043;-84
2022/12/08 06:55:21;;;;;;;6.60;1.88;;;;;;;2.16;100.00;98677.75;5090114;28;20126;-84
2022/12/08 06:57:47;;;;;;;2.33;1.63;;;;;;;2.22;100.00;98659.06;5092695;28;20436;-84
2022/12/08 07:00:13;;;;;;;4.88;1.80;;;;;;;2.22;100.00;98675.38;5090261;28;20032;-85
2022/12/08 07:02:40;;;;;;;4.97;1.70;;;;;;;2.24;100.00;98657.91;5089828;28;20024;-86
2022/12/08 07:05:06;;;;;;;3.20;1.60;;;;;;;1.94;100.00;98672.91;5072734;28;20070;-84
2022/12/08 07:07:32;;;;;;;8.00;1.95;;;;;;;2.03;100.00;98666.03;5072554;28;20427;-84
2022/12/08 07:09:57;;;;;;;5.55;1.45;;;;;;;1.97;100.00;98659.66;5089028;28;20371;-85
2022/12/08 07:12:23;;;;;;;4.93;1.80;;;;;;;1.83;100.00;98652.41;5088732;28;20034;-85
2022/12/08 07:14:48;;;;;;;2.03;1.65;;;;;;;1.75;100.00;98657.50;5089104;28;20016;-82
2022/12/08 07:17:14;;;;;;;6.35;2.00;;;;;;;1.64;100.00;98656.75;5070302;28;20032;-84
2022/12/08 07:19:39;;;;;;;6.03;2.00;;;;;;;1.79;100.00;98644.13;5090402;28;20039;-84
2022/12/08 07:22:05;;;;;;;5.63;1.77;;;;;;;1.92;100.00;98650.69;5071842;28;20135;-85
2022/12/08 07:24:31;;;;;;;2.88;1.85;;;;;;;1.98;100.00;98647.53;5070119;28;20035;-84
2022/12/08 07:26:56;;;;;;;6.57;1.80;;;;;;;1.84;100.00;98654.84;5090439;28;20388;-84
2022/12/08 07:29:22;;;;;;;7.07;2.63;;;;;;;1.80;100.00;98655.28;5090324;28;20568;-84
2022/12/08 07:31:47;;;;;;;5.10;2.08;;;;;;;1.60;100.00;98662.38;5090000;28;20066;-85
2022/12/08 07:34:13;;;;;;;3.85;2.40;;;;;;;1.50;100.00;98657.25;5072772;28;20036;-86
2022/12/08 07:36:39;;;;;;;4.88;2.10;;;;;;;1.31;100.00;98647.81;5089938;28;20032;-84
2022/12/08 07:39:04;;;;;;;4.13;2.13;;;;;;;0.85;100.00;98664.09;5071527;28;20032;-85
2022/12/08 07:41:30;;;;;;;6.53;2.25;;;;;;;1.19;100.00;98668.72;5071943;28;20028;-85
2022/12/08 07:43:56;;;;;;;3.13;2.22;;;;;;;1.27;100.00;98661.06;5090110;28;20044;-84
2022/12/08 07:46:23;;;;;;;4.43;2.30;;;;;;;1.32;100.00;98668.38;5068335;28;20393;-83
2022/12/08 07:48:49;;;;;;;5.93;2.28;;;;;;;1.17;100.00;98664.63;5088142;28;20496;-83
2022/12/08 07:51:15;;;;;;;6.25;2.50;;;;;;;1.20;100.00;98670.34;5088607;28;20027;-82
2022/12/08 07:53:44;;;;;;;9.43;2.30;;;;;;;1.17;100.00;98668.03;5088834;28;20103;-83
2022/12/08 07:56:10;;;;;;;3.25;1.90;;;;;;;1.13;100.00;98658.94;5071765;28;20187;-82
2022/12/08 07:58:39;;;;;;;6.82;1.90;;;;;;;1.06;100.00;98652.72;5088624;28;20135;-81
2022/12/08 08:01:16;;;;;;;5.55;2.40;;;;;;;0.74;100.00;98648.75;5089085;28;20035;-83
2022/12/08 08:03:42;;;;;;;2.90;2.00;;;;;;;0.77;100.00;98658.78;5069525;28;20028;-83
2022/12/08 08:06:08;;;;;;;6.93;2.50;;;;;;;1.07;100.00;98651.75;5090214;28;20036;-81
2022/12/08 08:08:34;;;;;;;6.75;2.13;;;;;;;0.59;100.00;98651.78;5092934;28;20028;-83
2022/12/08 08:10:59;;;;;;;4.47;2.17;;;;;;;0.77;100.00;98651.03;5092713;28;20043;-81
2022/12/08 08:13:25;;;;;;;4.53;2.70;;;;;;;0.96;100.00;98653.56;5075194;28;20100;-82
2022/12/08 08:15:50;;;;;;;8.48;3.78;;;;;;;0.87;100.00;98648.41;5057377;28;20931;-81
2022/12/08 08:18:16;;;;;;;12.23;4.72;;;;;;;0.71;100.00;98645.50;5096089;28;20028;-80
2022/12/08 08:20:42;;;;;;;9.63;4.00;;;;;;;0.80;100.00;98661.91;5090729;28;20521;-80
2022/12/08 08:23:11;;;;;;;5.55;3.13;;;;;;;0.81;100.00;98658.38;5076503;28;20107;-83
2022/12/08 08:25:37;;;;;;;8.30;3.55;;;;;;;0.90;100.00;98661.88;5092381;28;20020;-84
2022/12/08 08:28:02;;;;;;;3.85;2.17;;;;;;;0.82;100.00;98652.25;5093763;28;20393;-84
2022/12/08 08:30:28;;;;;;;7.20;2.38;;;;;;;0.85;100.00;98661.50;5091102;28;20024;-84
2022/12/08 08:32:53;;;;;;;5.07;2.83;;;;;;;0.84;100.00;98654.69;5099172;28;20385;-85
2022/12/08 08:35:19;;;;;;;6.72;2.70;;;;;;;0.80;100.00;98641.25;5087796;28;20067;-85
2022/12/08 08:37:45;;;;;;;6.07;3.22;;;;;;;1.02;100.00;98657.34;5075897;28;20103;-84
2022/12/08 08:40:11;;;;;;;5.00;3.30;;;;;;;0.97;100.00;98651.78;5094262;28;20451;-85
2022/12/08 08:42:36;;;;;;;5.80;3.00;;;;;;;0.94;100.00;98658.06;5092690;28;20090;-86
2022/12/08 08:45:02;;;;;;;12.05;3.47;;;;;;;0.90;100.00;98654.13;5074971;28;20474;-84
2022/12/08 08:47:28;;;;;;;7.63;3.13;;;;;;;0.82;100.00;98643.69;5074386;28;20413;-84
2022/12/08 08:49:54;;;;;;;4.30;2.72;;;;;;;1.05;100.00;98645.91;5072339;28;20111;-81
2022/12/08 08:52:19;;;;;;;6.15;2.30;;;;;;;0.76;100.00;98636.50;5091891;28;20039;-81
2022/12/08 08:54:45;;;;;;;4.05;2.10;;;;;;;0.78;100.00;98644.91;5073187;28;20421;-81
2022/12/08 08:57:10;;;;;;;3.83;2.63;;;;;;;0.92;100.00;98641.88;5091319;28;20031;-82
2022/12/08 08:59:36;;;;;;;5.72;2.55;;;;;;;1.11;100.00;98638.41;5090895;28;20044;-81
2022/12/08 09:02:01;;;;;;;3.78;1.92;;;;;;;1.26;100.00;98633.56;5056315;28;20401;-82
2022/12/08 09:04:27;;;;;;;4.95;2.38;;;;;;;1.47;100.00;98629.91;5091888;28;20028;-85
2022/12/08 09:06:52;;;;;;;4.25;2.25;;;;;;;1.25;100.00;98625.94;5092901;28;20042;-86
2022/12/08 09:09:18;;;;;;;7.88;4.22;;;;;;;1.47;100.00;98619.56;5058208;28;20495;-84
2022/12/08 09:11:44;;;;;;;7.75;4.25;;;;;;;1.44;100.00;98614.69;5092616;28;20492;-85
2022/12/08 09:14:14;;;;;;;6.65;2.90;;;;;;;1.26;100.00;98610.28;5092373;28;20081;-88
2022/12/08 09:16:40;;;;;;;4.22;2.30;;;;;;;1.45;100.00;98618.06;5074374;28;20047;-86
2022/12/08 09:19:06;;;;;;;3.80;1.70;;;;;;;1.55;99.91;98627.38;5093411;28;20469;-88
2022/12/08 09:21:33;;;;;;;2.42;1.90;;;;;;;1.54;99.78;98610.25;5076130;28;20032;-87
2022/12/08 09:23:59;;;;;;;6.03;2.00;;;;;;;1.38;98.86;98610.91;5075948;28;20028;-88
2022/12/08 09:26:26;;;;;;;2.78;1.90;;;;;;;1.62;98.39;98616.47;5093618;28;20077;-87
2022/12/08 09:28:53;;;;;;;4.82;1.85;;;;;;;1.22;98.35;98616.72;5093450;28;20031;-86
2022/12/08 09:31:22;;;;;;;4.53;2.38;;;;;;;1.47;98.50;98618.72;5093581;28;20056;-88
2022/12/08 09:33:50;;;;;;;3.42;1.75;;;;;;;1.46;97.54;98617.09;5093323;28;20043;-86
2022/12/08 09:36:16;;;;;;;2.72;1.90;;;;;;;1.39;97.53;98606.56;5073099;28;20028;-86
2022/12/08 09:38:42;;;;;;;2.78;2.00;;;;;;;1.71;98.26;98616.41;5059456;28;20036;-87
2022/12/08 09:41:16;;;;;;;3.15;1.70;;;;;;;1.76;98.12;98623.69;5093678;28;20089;-87
2022/12/08 09:44:18;;;;;;;3.63;1.88;;;;;;;1.76;97.88;98612.56;5075064;28;20222;-88
2022/12/08 09:46:50;;;;;;;4.95;2.10;;;;;;;1.61;98.53;98626.00;5075974;28;20036;-87
2022/12/08 09:49:20;;;;;;;2.70;1.70;;;;;;;2.02;97.97;98622.97;5092750;28;20553;-86
2022/12/08 09:51:45;;;;;;;1.80;1.67;;;;;;;2.08;97.42;98612.00;5093249;28;20032;-87
2022/12/08 09:54:17;;;;;;;2.83;1.50;;;;;;;2.17;96.23;98604.31;5074802;28;20531;-86
2022/12/08 09:56:42;;;;;;;2.83;1.67;;;;;;;2.09;96.31;98602.47;5092261;28;20032;-86
2022/12/08 09:59:08;;;;;;;3.53;1.92;;;;;;;2.17;95.34;98599.13;5074369;28;20038;-86
2022/12/08 10:01:40;;;;;;;4.28;2.15;;;;;;;2.27;94.82;98584.31;5092995;28;20106;-87
2022/12/08 10:04:31;;;;;;;6.03;2.65;;;;;;;2.31;94.56;98592.59;5092717;28;20386;-86
2022/12/08 10:07:01;;;;;;;3.53;2.10;;;;;;;2.40;94.43;98589.91;5092085;28;20116;-85
2022/12/08 10:09:43;;;;;;;4.70;2.00;;;;;;;2.42;94.07;98587.97;5074512;28;20030;-86
2022/12/08 10:12:42;;;;;;;4.30;2.00;;;;;;;2.56;93.99;98590.97;5090820;28;20470;-85
2022/12/08 10:15:26;;;;;;;6.25;2.30;;;;;;;2.49;93.74;98595.13;5074425;28;22884;-86
2022/12/08 10:17:53;;;;;;;5.38;2.20;;;;;;;2.60;93.87;98599.22;5091885;28;20031;-85
2022/12/08 10:20:24;;;;;;;4.82;2.20;;;;;;;2.43;94.66;98599.94;5089585;28;20039;-85
2022/12/08 10:23:14;;;;;;;6.25;2.22;;;;;;;2.45;94.67;98601.56;5073887;28;20123;-86
2022/12/08 10:25:45;;;;;;;4.80;1.90;;;;;;;2.54;94.97;98600.66;5092787;28;20512;-86
2022/12/08 10:28:11;;;;;;;3.90;2.63;;;;;;;2.63;95.09;98597.16;5073435;28;20103;-88
2022/12/08 10:30:37;;;;;;;4.05;2.55;;;;;;;2.66;94.90;98589.06;5091658;28;20111;-86
2022/12/08 10:33:03;;;;;;;2.22;2.08;;;;;;;2.68;94.83;98581.94;5092421;28;20058;-86
2022/12/08 10:35:43;;;;;;;5.40;2.60;;;;;;;2.60;95.57;98579.31;5092114;28;20111;-85
2022/12/08 10:38:36;;;;;;;5.60;3.50;;;;;;;2.64;95.81;98583.22;5091164;28;20448;-86
2022/12/08 10:41:10;;;;;;;2.70;2.50;;;;;;;2.63;95.82;98597.16;5072823;28;20040;-86
2022/12/08 10:43:51;;;;;;;5.60;2.88;;;;;;;2.79;95.93;98585.25;5094669;28;20040;-88
2022/12/08 10:46:24;;;;;;;3.35;2.13;;;;;;;2.66;95.58;98583.88;5091245;28;20023;-86
2022/12/08 10:49:09;;;;;;;5.38;2.35;;;;;;;2.56;95.37;98585.78;5091063;28;20024;-87
2022/12/08 10:51:40;;;;;;;5.07;2.13;;;;;;;2.96;94.33;98583.50;5090828;28;20035;-86
2022/12/08 10:54:25;;;;;;;3.90;2.13;;;;;;;2.96;94.77;98588.69;5091756;28;20379;-88
2022/12/08 10:56:56;;;;;;;7.05;2.42;;;;;;;3.04;94.88;98593.91;5092052;28;20109;-87
2022/12/08 10:59:24;;;;;;;5.22;2.28;;;;;;;3.04;94.90;98587.91;5057010;28;20020;-87
2022/12/08 11:01:52;;;;;;;5.72;2.40;;;;;;;3.08;94.80;98581.44;5092383;28;20032;-88
2022/12/08 11:04:18;;;;;;;2.88;2.15;;;;;;;3.11;93.36;98586.31;5056822;28;20090;-85
2022/12/08 11:06:45;;;;;;;6.93;2.45;;;;;;;3.08;91.47;98579.69;5092382;28;20559;-87
2022/12/08 11:09:14;;;;;;;4.85;2.53;;;;;;;2.99;91.78;98585.78;5073620;28;20047;-87
2022/12/08 11:11:55;;;;;;;2.92;2.35;;;;;;;3.08;90.47;98581.44;5091968;28;20588;-88
2022/12/08 11:14:29;;;;;;;4.03;2.55;;;;;;;3.07;88.52;98587.59;5091463;28;20366;-88
2022/12/08 11:17:03;;;;;;;2.50;2.30;;;;;;;2.95;87.46;98585.31;5091743;28;20028;-87
2022/12/08 11:19:29;;;;;;;3.13;2.40;;;;;;;2.97;87.49;98579.94;5072922;28;20028;-85
2022/12/08 11:21:55;;;;;;;4.68;2.75;;;;;;;2.84;87.61;98582.97;5091586;28;20474;-87
2022/12/08 11:24:27;;;;;;;5.70;3.05;;;;;;;3.04;87.44;98572.38;5090183;28;20395;-86
2022/12/08 11:27:02;;;;;;;18.08;9.02;;;;;;;3.11;86.46;98578.53;5091431;28;20032;-87
2022/12/08 11:29:31;;;;;;;15.32;9.60;;;;;;;3.17;86.37;98564.97;5091952;28;20024;-87
2022/12/08 11:32:06;;;;;;;6.72;3.97;;;;;;;2.88;85.73;98566.16;5091343;28;20413;-89
2022/12/08 11:34:46;;;;;;;4.57;2.90;;;;;;;2.99;86.20;98568.47;5091783;28;20020;-89
2022/12/08 11:37:31;;;;;;;6.50;2.65;;;;;;;3.18;86.30;98576.94;5073251;28;20032;-89
2022/12/08 11:40:01;;;;;;;11.50;6.35;;;;;;;3.19;86.08;98568.19;5090312;28;20016;-86
2022/12/08 11:42:50;;;;;;;6.72;2.92;;;;;;;3.09;85.96;98554.53;5095904;28;20051;-89
2022/12/08 11:45:26;;;;;;;4.47;3.63;;;;;;;3.14;85.54;98547.09;5095182;28;20112;-86
2022/12/08 11:48:18;;;;;;;6.35;3.40;;;;;;;3.15;85.48;98548.75;5095965;28;20165;-85